Time;durP1;ratioP1;P1;durP2;ratioP2;P2;SDS_P1;SDS_P2;PMS_P1;PMS_P2;Temp;Humidity;BMP_temperature;BMP_pressure;BME280_temperature;BME280_humidity;BME280_pressure;Samples;Min_cycle;Max_cycle;Signal;HPM_P1;HPM_P2
2022/11/25 00:00:47;;;;;;;22.32;12.37;;;;;;;0.29;100.00;98982.88;1768759;80;21201;-75
2022/11/25 00:03:19;;;;;;;20.60;12.07;;;;;;;0.28;100.00;98986.13;1769709;80;20877;-75
2022/11/25 00:05:49;;;;;;;17.60;10.20;;;;;;;0.28;100.00;98992.05;1770281;80;20932;-74
2022/11/25 00:08:21;;;;;;;18.50;9.85;;;;;;;0.29;100.00;98994.49;1750252;80;21007;-75
2022/11/25 00:10:51;;;;;;;16.40;8.33;;;;;;;0.29;100.00;98997.73;1773033;79;20994;-75
2022/11/25 00:13:21;;;;;;;14.63;7.87;;;;;;;0.28;100.00;98995.57;1770847;81;20924;-74
2022/11/25 00:15:54;;;;;;;16.42;8.80;;;;;;;0.26;100.00;99000.41;1770748;80;20932;-74
2022/11/25 00:18:25;;;;;;;13.38;7.10;;;;;;;0.26;100.00;98999.60;1779796;80;20879;-74
2022/11/25 00:20:58;;;;;;;15.60;9.05;;;;;;;0.28;100.00;98992.87;1763255;80;20949;-75
2022/11/25 00:23:27;;;;;;;21.15;12.23;;;;;;;0.30;100.00;99001.52;1770090;80;20918;-76
2022/11/25 00:25:59;;;;;;;20.75;13.32;;;;;;;0.30;100.00;98998.00;1745500;80;20837;-75
2022/11/25 00:28:32;;;;;;;23.05;12.47;;;;;;;0.30;100.00;98998.82;1755176;80;20984;-76
2022/11/25 00:31:13;;;;;;;22.45;15.23;;;;;;;0.31;100.00;98991.00;1738338;81;20990;-75
2022/11/25 00:33:48;;;;;;;;;;;;;;;0.31;100.00;98996.94;1724147;81;21517;-74
2022/11/25 00:36:20;;;;;;;21.70;11.80;;;;;;;0.32;100.00;98999.91;1745427;81;20130;-75
2022/11/25 00:39:12;;;;;;;21.65;12.00;;;;;;;0.33;100.00;99004.23;1751562;81;21249;-74
2022/11/25 00:44:39;;;;;;;20.50;11.50;;;;;;;0.34;100.00;99007.21;1719325;81;20900;-74
2022/11/25 00:47:20;;;;;;;21.35;11.63;;;;;;;0.34;100.00;99007.21;1717949;81;20990;-75
2022/11/25 00:49:52;;;;;;;19.20;10.63;;;;;;;0.31;100.00;99008.55;1743114;81;20891;-74
2022/11/25 00:52:25;;;;;;;16.85;10.30;;;;;;;0.31;100.00;99008.55;1742549;81;20999;-74
2022/11/25 00:54:54;;;;;;;17.55;10.15;;;;;;;0.30;100.00;99008.80;1719363;81;21454;-74
2022/11/25 00:57:24;;;;;;;16.35;10.38;;;;;;;0.31;100.00;99003.68;1743972;81;20904;-75
2022/11/25 00:59:56;;;;;;;18.77;9.40;;;;;;;0.34;100.00;99001.81;1747201;81;20944;-74
2022/11/25 01:02:28;;;;;;;16.15;10.43;;;;;;;0.36;100.00;99004.25;1743041;81;20892;-76
2022/11/25 01:04:57;;;;;;;15.38;9.10;;;;;;;0.34;100.00;99007.21;1740163;82;21247;-74
2022/11/25 01:07:30;;;;;;;16.50;9.38;;;;;;;0.34;100.00;99013.95;1756654;81;20887;-74
2022/11/25 01:09:58;;;;;;;;;;;;;;;0.34;100.00;99008.56;1744880;81;21068;-74
2022/11/25 01:12:37;;;;;;;15.45;8.05;;;;;;;0.35;100.00;99011.53;1742145;81;20094;-74
2022/11/25 01:15:08;;;;;;;17.77;10.98;;;;;;;0.35;100.00;99008.02;1744088;81;20857;-74
2022/11/25 01:17:38;;;;;;;20.90;10.48;;;;;;;0.32;100.00;99014.22;1718043;82;20896;-74
2022/11/25 01:20:09;;;;;;;18.50;10.50;;;;;;;0.32;100.00;99016.11;1709036;83;21045;-74
2022/11/25 01:22:41;;;;;;;20.23;10.80;;;;;;;0.32;100.00;99013.41;1714722;83;20983;-75
2022/11/25 01:25:14;;;;;;;13.18;7.50;;;;;;;0.33;100.00;99024.48;1716481;83;21125;-76
2022/11/25 01:27:42;;;;;;;16.90;8.15;;;;;;;0.32;100.00;99022.32;1711407;83;21549;-75
2022/11/25 01:30:14;;;;;;;12.00;6.58;;;;;;;0.30;100.00;99021.77;1700526;83;21062;-75
2022/11/25 01:32:51;;;;;;;12.95;7.80;;;;;;;0.32;100.00;99026.91;1725471;82;20901;-77
2022/11/25 01:35:23;;;;;;;13.90;8.10;;;;;;;0.34;100.00;99024.76;1706656;82;21116;-75
2022/11/25 01:37:56;;;;;;;12.33;7.65;;;;;;;0.35;100.00;99025.03;1732394;82;20987;-78
2022/11/25 01:40:26;;;;;;;12.80;6.92;;;;;;;0.38;100.00;99022.34;1738604;82;21066;-76
2022/11/25 01:42:56;;;;;;;15.88;7.95;;;;;;;0.39;100.00;99028.02;1734164;82;21098;-77
2022/11/25 01:45:37;;;;;;;14.65;7.62;;;;;;;0.40;100.00;99025.06;1726968;82;20996;-76
2022/11/25 01:48:26;;;;;;;14.15;6.95;;;;;;;0.40;100.00;99028.30;1738535;82;20956;-76
2022/11/25 01:50:56;;;;;;;17.80;7.72;;;;;;;0.41;100.00;99027.23;1727902;82;21030;-76
2022/11/25 01:53:34;;;;;;;13.58;7.33;;;;;;;0.35;100.00;99026.92;1715345;82;20935;-76
2022/11/25 01:56:03;;;;;;;14.93;7.28;;;;;;;0.32;100.00;99030.95;1776915;80;21514;-76
2022/11/25 01:58:39;;;;;;;12.33;5.80;;;;;;;0.31;100.00;99039.59;1750843;80;20928;-73
2022/11/25 02:01:08;;;;;;;12.03;6.20;;;;;;;0.31;100.00;99036.08;1773737;79;20926;-73
2022/11/25 14:18:00;;;;;;;15.58;10.18;;;;;;;0.09;100.00;99454.57;1783591;79;27005;-78
2022/11/25 14:20:47;;;;;;;13.75;8.38;;;;;;;0.07;100.00;99450.48;1738828;80;21441;-79
2022/11/25 14:23:47;;;;;;;37.50;18.42;;;;;;;0.12;100.00;99448.67;1735642;81;20977;-77
2022/11/25 14:26:28;;;;;;;28.23;16.60;;;;;;;0.13;100.00;99450.30;1732652;81;20954;-82
2022/11/25 14:29:17;;;;;;;25.77;16.62;;;;;;;0.18;100.00;99459.00;1712011;82;20942;-75
2022/11/25 14:31:45;;;;;;;21.45;14.03;;;;;;;0.20;100.00;99453.64;1727330;82;21005;-72
2022/11/25 14:34:32;;;;;;;22.80;15.75;;;;;;;0.20;100.00;99454.17;1736985;82;20862;-75
2022/11/25 14:37:46;;;;;;;27.05;18.15;;;;;;;0.21;100.00;99452.58;1742122;81;21474;-74
2022/11/25 14:40:22;;;;;;;25.00;16.00;;;;;;;0.23;100.00;99461.77;1742454;81;20941;-72
2022/11/25 14:42:51;;;;;;;31.45;17.60;;;;;;;0.27;100.00;99458.86;1712957;80;20953;-71
2022/11/25 14:45:26;;;;;;;29.65;18.05;;;;;;;0.29;100.00;99460.77;1749714;81;20928;-73
2022/11/25 14:47:55;;;;;;;22.77;14.65;;;;;;;0.28;100.00;99464.01;1749782;80;21512;-73
2022/11/25 14:50:22;;;;;;;18.50;11.40;;;;;;;0.27;100.00;99465.07;1748029;81;21128;-74
2022/11/25 14:52:48;;;;;;;15.48;10.98;;;;;;;0.30;100.00;99469.16;1747773;81;20868;-74
2022/11/25 14:55:28;;;;;;;16.48;9.93;;;;;;;0.29;100.00;99471.04;1747198;81;21536;-73
2022/11/25 14:57:55;;;;;;;14.80;10.35;;;;;;;0.30;100.00;99470.51;1743355;81;20939;-75
2022/11/25 15:00:23;;;;;;;16.87;11.85;;;;;;;0.31;100.00;99470.26;1745117;81;20998;-81
2022/11/25 15:03:00;;;;;;;18.17;13.28;;;;;;;0.36;100.00;99467.34;1748665;80;21127;-84
2022/11/25 15:05:34;;;;;;;21.82;14.35;;;;;;;0.39;100.00;99466.84;1755953;80;20991;-78
2022/11/25 15:08:07;;;;;;;20.60;12.95;;;;;;;0.40;100.00;99471.17;1742692;80;20890;-78
2022/11/25 15:10:53;;;;;;;24.35;13.58;;;;;;;0.41;100.00;99468.75;1745616;80;21948;-77
2022/11/25 15:13:44;;;;;;;21.70;12.37;;;;;;;0.42;100.00;99469.85;1750026;80;20881;-78
2022/11/25 15:16:27;;;;;;;27.77;15.08;;;;;;;0.43;100.00;99473.38;1755236;80;21568;-79
2022/11/25 15:19:01;;;;;;;28.80;16.45;;;;;;;0.41;100.00;99477.67;1726269;80;21012;-80
2022/11/25 15:21:36;;;;;;;23.60;13.72;;;;;;;0.41;100.00;99473.63;1728408;80;21553;-80
2022/11/25 15:24:06;;;;;;;17.82;12.15;;;;;;;0.44;100.00;99478.52;1768820;80;21422;-77
2022/11/25 15:26:34;;;;;;;14.85;11.10;;;;;;;0.44;100.00;99470.95;1775812;80;21014;-79
2022/11/25 15:29:11;;;;;;;14.10;9.28;;;;;;;0.43;100.00;99478.23;1759464;80;21163;-81
2022/11/25 15:31:38;;;;;;;12.20;8.95;;;;;;;0.42;100.00;99476.61;1771657;80;20984;-79
2022/11/25 15:34:10;;;;;;;15.40;10.98;;;;;;;0.43;100.00;99480.13;1763013;80;20888;-81
2022/11/25 15:36:37;;;;;;;14.70;10.08;;;;;;;0.43;100.00;99478.77;1753390;80;20947;-81
2022/11/25 15:39:14;;;;;;;12.53;8.70;;;;;;;0.47;100.00;99483.42;1770002;80;21003;-83
2022/11/25 15:41:49;;;;;;;13.00;9.80;;;;;;;0.48;100.00;99482.36;1758660;80;21056;-76
2022/11/25 15:44:30;;;;;;;14.15;10.43;;;;;;;0.49;100.00;99479.94;1748177;80;21483;-79
2022/11/25 15:47:04;;;;;;;12.78;9.00;;;;;;;0.48;100.00;99477.48;1739201;80;21068;-75
2022/11/25 15:49:33;;;;;;;11.35;7.60;;;;;;;0.45;100.00;99483.39;1725876;81;20983;-76
2022/11/25 15:52:19;;;;;;;9.83;7.00;;;;;;;0.40;100.00;99478.73;1737167;82;21440;-78
2022/11/25 15:54:48;;;;;;;11.78;9.15;;;;;;;0.35;100.00;99484.08;1732090;82;22155;-74
2022/11/25 15:57:22;;;;;;;11.55;8.00;;;;;;;0.36;100.00;99480.84;1726022;82;21581;-75
2022/11/25 15:59:56;;;;;;;10.45;7.70;;;;;;;0.39;100.00;99485.21;1702720;81;20984;-73
2022/11/25 16:02:44;;;;;;;11.85;8.28;;;;;;;0.39;100.00;99483.86;1739629;82;21036;-77
2022/11/25 16:05:18;;;;;;;11.88;8.50;;;;;;;0.37;100.00;99486.52;1729211;80;21029;-77
2022/11/25 16:07:56;;;;;;;11.68;7.28;;;;;;;0.35;100.00;99488.66;1733109;81;21502;-75
2022/11/25 16:10:46;;;;;;;11.25;7.85;;;;;;;0.29;100.00;99493.98;1747435;80;20983;-79
2022/11/25 16:13:27;;;;;;;11.75;8.30;;;;;;;0.24;100.00;99493.11;1763710;80;21043;-80
2022/11/25 16:16:19;;;;;;;11.03;7.70;;;;;;;0.24;100.00;99499.86;1776701;80;21644;-76
2022/11/25 16:19:07;;;;;;;;;;;;;;;0.27;100.00;99492.61;1732806;81;20999;-78
2022/11/25 16:21:42;;;;;;;13.60;9.33;;;;;;;0.29;100.00;99502.09;1761701;80;21183;-79
2022/11/25 16:24:36;;;;;;;12.47;9.13;;;;;;;0.30;100.00;99498.86;1730207;81;20949;-79
2022/11/25 16:27:27;;;;;;;13.25;9.25;;;;;;;0.32;100.00;99501.59;1736868;80;21548;-82
2022/11/25 16:29:57;;;;;;;20.05;13.88;;;;;;;0.32;100.00;99502.12;1750670;80;21046;-75
2022/11/25 16:32:27;;;;;;;20.15;12.03;;;;;;;0.30;100.00;99508.31;1782107;80;21125;-79
2022/11/25 16:34:56;;;;;;;15.60;10.18;;;;;;;0.31;100.00;99516.69;1769573;80;21724;-79
2022/11/25 16:37:23;;;;;;;14.65;9.00;;;;;;;0.33;100.00;99513.21;1754236;80;20940;-83
2022/11/25 16:39:49;;;;;;;12.70;9.08;;;;;;;0.31;100.00;99518.05;1752731;80;21510;-84
2022/11/25 16:42:19;;;;;;;16.55;11.03;;;;;;;0.30;100.00;99521.81;1753078;80;20971;-81
2022/11/25 16:44:49;;;;;;;16.80;12.53;;;;;;;0.31;100.00;99526.14;1758016;80;21118;-77
2022/11/25 16:47:18;;;;;;;13.75;9.98;;;;;;;0.30;100.00;99528.56;1762226;80;21491;-78
2022/11/25 16:49:45;;;;;;;12.90;9.98;;;;;;;0.28;100.00;99530.16;1780256;80;21176;-77
2022/11/25 16:52:13;;;;;;;12.60;8.73;;;;;;;0.30;100.00;99525.86;1768528;80;21066;-80
2022/11/25 16:54:40;;;;;;;11.97;8.55;;;;;;;0.28;100.00;99525.29;1772710;80;21003;-77
2022/11/25 16:57:15;;;;;;;13.30;8.08;;;;;;;0.29;100.00;99524.23;1764062;80;20955;-79
2022/11/25 16:59:42;;;;;;;12.73;8.13;;;;;;;0.29;100.00;99530.44;1758035;80;21203;-76
2022/11/25 17:02:20;;;;;;;9.65;7.00;;;;;;;0.28;100.00;99520.70;1766801;80;20943;-77
2022/11/25 17:04:47;;;;;;;11.18;7.50;;;;;;;0.30;100.00;99528.56;1745274;80;20971;-76
2022/11/25 17:07:15;;;;;;;10.18;7.25;;;;;;;0.27;100.00;99520.95;1741696;80;21092;-77
2022/11/25 17:09:43;;;;;;;8.88;5.80;;;;;;;0.27;100.00;99531.76;1717941;82;21113;-74
2022/11/25 17:12:23;;;;;;;12.73;7.28;;;;;;;0.23;100.00;99526.03;1730242;82;21213;-77
2022/11/25 17:14:50;;;;;;;10.63;6.33;;;;;;;0.22;100.00;99523.05;1713264;82;21211;-74
2022/11/25 17:17:22;;;;;;;10.45;7.03;;;;;;;0.23;100.00;99530.09;1670534;85;21576;-74
2022/11/25 17:19:50;;;;;;;9.88;7.53;;;;;;;0.22;100.00;99522.23;1662731;84;21044;-76
2022/11/25 17:22:21;;;;;;;12.03;8.15;;;;;;;0.22;100.00;99520.88;1683427;83;21012;-77
2022/11/25 17:24:47;;;;;;;12.23;8.23;;;;;;;0.23;100.00;99530.09;1674008;84;21144;-81
2022/11/25 17:27:23;;;;;;;10.30;6.17;;;;;;;0.22;100.00;99528.98;1705309;82;21549;-76
2022/11/25 17:29:50;;;;;;;10.32;6.03;;;;;;;0.22;100.00;99531.69;1731167;80;20975;-74
2022/11/25 17:32:19;;;;;;;9.53;6.53;;;;;;;0.22;100.00;99528.98;1742026;80;21012;-75
2022/11/25 17:34:53;;;;;;;8.90;6.28;;;;;;;0.22;100.00;99527.63;1739876;80;21646;-73
2022/11/25 17:37:22;;;;;;;8.63;5.10;;;;;;;0.20;100.00;99527.88;1701558;82;21334;-75
2022/11/25 17:39:52;;;;;;;9.05;5.10;;;;;;;0.18;100.00;99533.25;1709510;81;22193;-74
2022/11/25 17:42:33;;;;;;;7.90;5.00;;;;;;;0.18;100.00;99533.25;1739094;81;21013;-73
2022/11/25 17:45:03;;;;;;;7.17;4.62;;;;;;;0.18;100.00;99529.20;1730700;81;20964;-75
2022/11/25 17:47:30;;;;;;;7.05;4.40;;;;;;;0.15;100.00;99537.79;1739092;81;21037;-77
2022/11/25 17:50:02;;;;;;;8.95;5.67;;;;;;;0.14;100.00;99540.20;1728967;81;21507;-75
2022/11/25 17:52:32;;;;;;;8.93;5.70;;;;;;;0.15;100.00;99538.61;1712550;81;20939;-74
2022/11/25 17:55:04;;;;;;;11.38;6.83;;;;;;;0.20;100.00;99539.22;1721658;81;28529;-76
2022/11/25 17:57:35;;;;;;;7.35;5.70;;;;;;;0.21;100.00;99538.15;1734671;80;21042;-73
2022/11/25 18:00:11;;;;;;;10.88;6.50;;;;;;;0.22;100.00;99539.78;1759812;80;21176;-73
2022/11/25 18:02:41;;;;;;;9.58;6.75;;;;;;;0.22;100.00;99539.78;1714616;82;20959;-73
2022/11/25 18:05:16;;;;;;;10.25;6.53;;;;;;;0.22;100.00;99538.44;1709013;82;20983;-79
2022/11/25 18:07:42;;;;;;;;;;;;;;;0.22;100.00;99544.66;1738744;81;21087;-78
2022/11/25 18:10:22;;;;;;;9.83;6.60;;;;;;;0.20;100.00;99542.73;1733603;81;20237;-76
2022/11/25 18:12:50;;;;;;;7.42;5.22;;;;;;;0.20;100.00;99542.73;1735388;81;21093;-73
2022/11/25 18:15:31;;;;;;;8.40;5.97;;;;;;;0.20;100.00;99536.52;1752169;80;21210;-75
2022/11/25 18:18:09;;;;;;;11.33;6.08;;;;;;;0.17;100.00;99538.36;1738555;81;21083;-75
2022/11/25 18:20:41;;;;;;;7.53;5.20;;;;;;;0.18;100.00;99544.05;1752240;80;21042;-70
2022/11/25 18:23:12;;;;;;;9.80;5.42;;;;;;;0.18;100.00;99539.99;1747747;80;20932;-75
2022/11/25 18:25:43;;;;;;;7.28;5.05;;;;;;;0.17;100.00;99540.53;1765394;80;21014;-70
2022/11/25 18:28:15;;;;;;;8.88;5.42;;;;;;;0.19;100.00;99542.45;1752240;80;21481;-81
2022/11/25 18:30:48;;;;;;;10.35;6.30;;;;;;;0.19;100.00;99540.28;1776662;80;21090;-79
2022/11/25 18:33:20;;;;;;;9.95;6.37;;;;;;;0.20;100.00;99537.87;1752532;80;21445;-73
2022/11/25 18:35:50;;;;;;;8.70;5.50;;;;;;;0.20;100.00;99537.33;1740846;80;21672;-73
2022/11/25 18:38:21;;;;;;;7.67;5.40;;;;;;;0.21;100.00;99532.22;1757536;81;21097;-72
2022/11/25 18:40:55;;;;;;;7.75;4.85;;;;;;;0.22;100.00;99541.14;1741102;82;21105;-75
2022/11/25 18:43:26;;;;;;;9.55;4.60;;;;;;;0.22;100.00;99539.78;1726744;81;20942;-71
2022/11/25 18:45:52;;;;;;;9.50;5.33;;;;;;;0.20;100.00;99541.91;1735501;81;21122;-72
2022/11/25 18:48:29;;;;;;;7.97;4.75;;;;;;;0.16;100.00;99535.37;1744832;80;21506;-74
2022/11/25 18:50:56;;;;;;;7.70;4.70;;;;;;;0.16;100.00;99536.72;1748197;80;21074;-74
2022/11/25 18:53:28;;;;;;;8.53;4.70;;;;;;;0.13;100.00;99538.04;1723073;82;21240;-74
2022/11/25 18:55:58;;;;;;;9.35;4.30;;;;;;;0.14;100.00;99536.16;1664700;84;21020;-71
2022/11/25 18:58:31;;;;;;;11.45;5.00;;;;;;;0.15;100.00;99542.66;1668543;85;21025;-73
2022/11/25 19:01:04;;;;;;;7.10;4.47;;;;;;;0.17;100.00;99541.06;1630937;83;21087;-73
2022/11/25 19:03:34;;;;;;;7.37;4.60;;;;;;;0.17;100.00;99537.02;1753655;80;21089;-76
2022/11/25 19:06:03;;;;;;;8.63;4.92;;;;;;;0.13;100.00;99538.57;1771165;79;21549;-71
2022/11/25 19:08:39;;;;;;;9.70;4.58;;;;;;;0.09;100.00;99544.18;1777410;79;21106;-73
2022/11/25 19:11:17;;;;;;;8.73;4.65;;;;;;;0.09;100.00;99544.99;1747322;80;21008;-73
2022/11/25 19:13:49;;;;;;;8.70;4.60;;;;;;;0.11;100.00;99552.31;1768372;80;21028;-71
2022/11/25 19:16:22;;;;;;;6.65;4.20;;;;;;;0.10;100.00;99553.91;1742120;81;21016;-72
2022/11/25 19:18:55;;;;;;;7.22;4.37;;;;;;;0.06;100.00;99550.89;1750950;80;21524;-72
2022/11/25 19:21:22;;;;;;;10.85;5.35;;;;;;;0.06;100.00;99558.17;1744396;80;21063;-73
2022/11/25 19:23:51;;;;;;;8.53;5.20;;;;;;;0.09;100.00;99561.72;1720013;80;21589;-73
2022/11/25 19:26:28;;;;;;;9.70;5.10;;;;;;;0.12;100.00;99555.83;1724188;80;21554;-74
2022/11/25 19:29:10;;;;;;;10.28;5.47;;;;;;;0.14;100.00;99561.80;1726587;80;21039;-73
2022/11/25 19:31:44;;;;;;;8.40;4.72;;;;;;;0.12;100.00;99562.05;1698675;82;20980;-73
2022/11/25 19:34:28;;;;;;;8.75;5.42;;;;;;;0.15;100.00;99566.95;1736559;81;20964;-72
2022/11/25 19:36:59;;;;;;;8.58;5.08;;;;;;;0.15;100.00;99566.95;1727032;81;21092;-75
2022/11/25 19:39:27;;;;;;;9.60;5.28;;;;;;;0.13;100.00;99560.98;1671980;83;20948;-74
2022/11/25 19:41:58;;;;;;;8.28;4.78;;;;;;;0.17;100.00;99564.01;1703854;83;21060;-73
2022/11/25 19:44:31;;;;;;;7.27;4.60;;;;;;;0.21;100.00;99561.09;1692136;83;21516;-74
2022/11/25 19:47:00;;;;;;;8.25;4.85;;;;;;;0.20;100.00;99567.56;1681679;84;21009;-73
2022/11/25 19:49:29;;;;;;;7.12;4.25;;;;;;;0.14;100.00;99569.90;1700208;84;21064;-73
2022/11/25 19:52:00;;;;;;;9.65;4.78;;;;;;;0.12;100.00;99560.70;1685183;83;21023;-75
2022/11/25 19:54:30;;;;;;;7.15;4.47;;;;;;;0.15;100.00;99566.13;1677060;83;21065;-75
2022/11/25 19:57:02;;;;;;;7.42;4.95;;;;;;;0.17;100.00;99565.36;1661509;83;20964;-76
2022/11/25 19:59:34;;;;;;;7.78;4.78;;;;;;;0.18;100.00;99564.30;1649399;85;21588;-75
2022/11/25 20:02:18;;;;;;;7.95;4.50;;;;;;;0.19;100.00;99561.88;1696703;83;21066;-76
2022/11/25 20:04:47;;;;;;;8.53;5.05;;;;;;;0.20;100.00;99570.27;1685613;82;21130;-75
2022/11/25 20:07:18;;;;;;;8.78;4.87;;;;;;;0.20;100.00;99571.61;1726390;81;21221;-75
2022/11/25 20:09:55;;;;;;;8.45;4.95;;;;;;;0.20;100.00;99573.78;1702579;83;21046;-75
2022/11/25 20:12:28;;;;;;;7.90;4.20;;;;;;;0.18;100.00;99571.05;1718049;82;21020;-72
2022/11/25 20:15:01;;;;;;;8.90;3.75;;;;;;;0.17;100.00;99581.02;1724986;82;21043;-73
2022/11/25 20:17:37;;;;;;;8.20;4.90;;;;;;;0.19;100.00;99568.63;1719981;81;21562;-74
2022/11/25 20:20:32;;;;;;;7.62;4.33;;;;;;;0.19;100.00;99576.20;1700925;82;22169;-73
2022/11/25 20:23:15;;;;;;;6.90;3.87;;;;;;;0.20;100.00;99574.31;1769557;80;21671;-73
2022/11/25 20:25:48;;;;;;;10.03;4.62;;;;;;;0.20;100.00;99575.13;1745312;80;20884;-73
2022/11/25 20:28:26;;;;;;;8.13;4.20;;;;;;;0.21;100.00;99574.06;1741002;80;21482;-74
2022/11/25 20:30:58;;;;;;;7.62;4.45;;;;;;;0.23;100.00;99577.87;1777667;79;21547;-73
2022/11/25 20:33:26;;;;;;;6.58;4.03;;;;;;;0.21;100.00;99580.00;1751435;80;21212;-73
2022/11/25 20:36:07;;;;;;;8.50;4.28;;;;;;;0.21;100.00;99581.34;1739275;81;21141;-74
2022/11/25 20:38:39;;;;;;;7.50;4.08;;;;;;;0.21;100.00;99580.00;1748105;81;20972;-74
2022/11/25 20:41:12;;;;;;;8.78;4.53;;;;;;;0.19;100.00;99582.13;1719938;82;21068;-72
2022/11/25 20:43:48;;;;;;;8.43;4.45;;;;;;;0.18;100.00;99584.54;1694026;83;21024;-73
2022/11/25 20:46:18;;;;;;;8.20;4.55;;;;;;;0.19;100.00;99584.30;1731417;82;21333;-73
2022/11/25 20:48:51;;;;;;;8.55;4.37;;;;;;;0.20;100.00;99589.16;1719175;82;21052;-73
2022/11/25 20:51:19;;;;;;;8.68;4.97;;;;;;;0.15;100.00;99587.73;1737232;82;21021;-73
2022/11/25 20:53:56;;;;;;;7.17;4.00;;;;;;;0.13;100.00;99577.72;1742555;81;21032;-74
2022/11/25 20:56:27;;;;;;;7.53;4.72;;;;;;;0.15;100.00;99576.41;1739698;81;21524;-74
2022/11/25 20:58:55;;;;;;;10.90;4.95;;;;;;;0.13;100.00;99569.61;1738088;81;21495;-72
2022/11/25 21:01:28;;;;;;;11.30;5.72;;;;;;;0.11;100.00;99574.44;1719351;81;21004;-74
2022/11/25 21:03:56;;;;;;;7.97;4.58;;;;;;;0.09;100.00;99571.98;1738350;81;22213;-73
2022/11/25 21:06:31;;;;;;;10.50;5.30;;;;;;;0.06;100.00;99571.12;1731995;82;20908;-74
2022/11/25 21:09:07;;;;;;;7.15;4.40;;;;;;;0.06;100.00;99582.45;1725876;81;21508;-73
2022/11/25 21:11:39;;;;;;;11.38;5.92;;;;;;;0.09;100.00;99584.14;1738364;81;21442;-73
2022/11/25 21:14:16;;;;;;;8.60;4.60;;;;;;;0.08;100.00;99585.73;1719527;81;21952;-72
2022/11/25 21:16:49;;;;;;;11.35;5.80;;;;;;;0.08;100.00;99589.25;1736284;82;21031;-73
2022/11/25 21:19:19;;;;;;;9.65;5.75;;;;;;;0.11;100.00;99583.89;1739627;81;21570;-73
2022/11/25 21:21:55;;;;;;;9.43;4.97;;;;;;;0.14;100.00;99584.75;1710575;82;21961;-73
2022/11/25 21:24:35;;;;;;;10.28;4.40;;;;;;;0.16;100.00;99582.63;1727070;81;21035;-74
2022/11/25 21:27:10;;;;;;;8.35;4.53;;;;;;;0.14;100.00;99576.65;1715440;82;21174;-74
2022/11/25 21:29:40;;;;;;;8.25;4.87;;;;;;;0.12;100.00;99577.42;1743007;81;21023;-73
2022/11/25 21:32:22;;;;;;;10.13;4.90;;;;;;;0.12;100.00;99580.13;1749536;81;21082;-73
2022/11/25 21:34:53;;;;;;;8.73;4.47;;;;;;;0.14;100.00;99582.05;1725551;82;21022;-74
2022/11/25 21:37:39;;;;;;;6.80;4.42;;;;;;;0.16;100.00;99580.73;1713581;82;21036;-73
2022/11/25 21:40:33;;;;;;;6.90;4.55;;;;;;;0.13;100.00;99575.02;1703322;82;21034;-74
2022/11/25 21:43:03;;;;;;;7.97;4.60;;;;;;;0.12;100.00;99576.08;1727738;81;20963;-73
2022/11/25 21:45:35;;;;;;;8.53;4.47;;;;;;;0.11;100.00;99575.79;1729641;81;21142;-74
2022/11/25 21:48:02;;;;;;;8.65;4.65;;;;;;;0.11;100.00;99572.56;1720123;82;20896;-73
2022/11/25 21:50:32;;;;;;;73.83;46.53;;;;;;;0.11;100.00;99569.05;1686359;83;20956;-72
2022/11/25 21:53:06;;;;;;;13.18;8.78;;;;;;;0.09;100.00;99569.82;1723627;81;21451;-72
2022/11/25 21:55:35;;;;;;;9.13;6.10;;;;;;;0.11;100.00;99571.21;1719271;81;20991;-72
2022/11/25 21:58:10;;;;;;;6.62;4.35;;;;;;;0.11;100.00;99565.81;1705668;82;21090;-73
2022/11/25 22:00:36;;;;;;;6.58;3.90;;;;;;;0.12;100.00;99575.55;1745849;81;21109;-74
2022/11/25 22:03:07;;;;;;;7.05;4.60;;;;;;;0.10;100.00;99573.63;1737878;81;21541;-73
2022/11/25 22:05:38;;;;;;;7.55;4.60;;;;;;;0.09;100.00;99575.22;1727226;81;21881;-73
2022/11/25 22:08:11;;;;;;;7.12;4.60;;;;;;;0.09;100.00;99580.62;1742725;81;21022;-72
2022/11/25 22:10:41;;;;;;;7.45;4.20;;;;;;;0.08;100.00;99574.94;1745843;81;21125;-72
2022/11/25 22:13:32;;;;;;;7.10;4.60;;;;;;;0.09;100.00;99586.02;1718869;81;21042;-73
2022/11/25 22:16:07;;;;;;;6.92;4.33;;;;;;;0.08;100.00;99579.80;1717250;82;21580;-72
2022/11/25 22:18:41;;;;;;;8.50;5.05;;;;;;;0.09;100.00;99577.92;1741943;81;21191;-72
2022/11/25 22:21:15;;;;;;;7.37;4.33;;;;;;;0.09;100.00;99577.92;1710273;81;21093;-75
2022/11/25 22:23:42;;;;;;;8.75;4.92;;;;;;;0.06;100.00;99575.71;1743808;80;21616;-72
2022/11/25 22:26:33;;;;;;;7.40;4.80;;;;;;;0.01;100.00;99575.09;1744972;81;21045;-74
2022/11/25 22:29:06;;;;;;;8.25;5.20;;;;;;;0.00;100.00;99575.63;1742010;81;21090;-73
2022/11/25 22:31:45;;;;;;;7.87;4.30;;;;;;;0.03;100.00;99582.95;1737854;80;22085;-74
2022/11/25 22:34:18;;;;;;;6.78;4.47;;;;;;;0.05;100.00;99580.83;1737255;80;21026;-72
2022/11/25 22:36:47;;;;;;;13.30;6.55;;;;;;;0.05;100.00;99587.04;1683981;83;21098;-73
2022/11/25 22:39:22;;;;;;;14.43;7.87;;;;;;;0.06;100.00;99587.86;1726743;82;20959;-73
2022/11/25 22:42:07;;;;;;;14.05;8.40;;;;;;;0.07;100.00;99594.89;1748852;81;21071;-74
2022/11/25 22:44:50;;;;;;;12.47;7.85;;;;;;;0.07;100.00;99600.29;1740963;81;21207;-72
2022/11/25 22:47:31;;;;;;;11.00;6.97;;;;;;;0.05;100.00;99599.72;1719172;81;21045;-72
2022/11/25 22:50:07;;;;;;;9.05;6.62;;;;;;;0.03;100.00;99597.27;1693837;81;20943;-72
2022/11/25 22:52:36;;;;;;;9.58;6.92;;;;;;;0.03;100.00;99608.59;1729469;82;21034;-73
2022/11/25 22:55:24;;;;;;;14.63;8.65;;;;;;;0.04;100.00;99611.58;1738552;82;21505;-73
2022/11/25 22:57:55;;;;;;;16.07;8.15;;;;;;;0.05;100.00;99611.33;1668040;84;21117;-76
2022/11/25 23:00:36;;;;;;;10.63;7.78;;;;;;;0.07;100.00;99614.61;1663649;84;20936;-74
2022/11/25 23:03:06;;;;;;;10.75;6.80;;;;;;;0.08;100.00;99614.08;1673956;84;21040;-75
2022/11/25 23:05:35;;;;;;;8.65;5.47;;;;;;;0.09;100.00;99609.78;1674066;84;21047;-73
2022/11/25 23:08:24;;;;;;;7.10;5.20;;;;;;;0.10;100.00;99606.55;1678832;84;21115;-72
2022/11/25 23:10:51;;;;;;;8.63;6.35;;;;;;;0.08;100.00;99608.67;1728312;81;21166;-74
2022/11/25 23:13:19;;;;;;;9.33;6.83;;;;;;;0.11;100.00;99612.23;1745733;81;21043;-74
2022/11/25 23:15:53;;;;;;;9.78;7.15;;;;;;;0.10;100.00;99606.55;1727213;82;20975;-73
2022/11/25 23:18:44;;;;;;;8.95;6.95;;;;;;;0.07;100.00;99610.55;1731776;80;21461;-75
2022/11/25 23:21:21;;;;;;;8.15;6.60;;;;;;;0.06;100.00;99608.10;1733082;81;21101;-73
2022/11/25 23:23:47;;;;;;;8.65;6.28;;;;;;;0.04;100.00;99614.28;1755278;81;21138;-73
2022/11/25 23:26:14;;;;;;;8.00;5.50;;;;;;;0.05;100.00;99609.16;1758652;81;20924;-73
2022/11/25 23:28:41;;;;;;;7.90;5.53;;;;;;;0.04;100.00;99610.23;1761886;81;21039;-73
2022/11/25 23:31:10;;;;;;;8.13;5.53;;;;;;;0.04;100.00;99607.53;1753517;81;21048;-73
2022/11/25 23:33:46;;;;;;;7.20;4.85;;;;;;;0.05;100.00;99615.38;1725902;81;21102;-74
2022/11/25 23:36:22;;;;;;;9.55;6.00;;;;;;;0.04;100.00;99612.92;1732493;81;21251;-73
2022/11/25 23:38:54;;;;;;;9.30;6.75;;;;;;;0.06;100.00;99609.45;1751837;81;21010;-73
2022/11/25 23:41:24;;;;;;;8.53;6.37;;;;;;;0.04;100.00;99614.28;1751900;81;21552;-74
2022/11/25 23:43:50;;;;;;;7.28;5.53;;;;;;;0.04;100.00;99618.33;1771977;80;21095;-73
2022/11/25 23:46:22;;;;;;;7.22;5.60;;;;;;;0.03;100.00;99622.91;1766982;80;21016;-73
2022/11/25 23:48:55;;;;;;;6.53;4.95;;;;;;;0.03;100.00;99618.86;1772096;80;21255;-75
2022/11/25 23:51:23;;;;;;;5.42;3.70;;;;;;;0.04;100.00;99621.02;1768119;80;20949;-74
2022/11/25 23:53:49;;;;;;;6.37;3.47;;;;;;;0.02;100.00;99619.92;1721176;82;21000;-73
2022/11/25 23:56:17;;;;;;;4.80;3.35;;;;;;;0.00;100.00;99617.47;1712625;83;21032;-74
2022/11/25 23:58:44;;;;;;;7.17;3.83;;;;;;;-0.01;100.00;99625.84;1710559;83;21483;-74
